メインページ
METAR-TAF:

METAR-TAF

空港 :

Chautauqua County/Dunkirk Airport

Dunkirk, ニューヨーク, アメリカ合衆国

緯度: 42-29-35N, 経度: 079-16-33W, 海抜: 211m

現時点の気象観測

当レポートは21分前の11:53(UTC)に作成
北西の風 14kt、最大20ktの突風を伴う
気温 -5°C
湿度 63%
気圧 1022 hPa
視程: 12.9km
高度2600ftの雲はほとんどない
高度3800ftの曇り
小雪

METAR: KDKK 231153Z AUTO 31014G20KT 8SM -SN FEW026 OVC038 M05/M11 A3018 RMK AO2 PK WND 29026/1055 SNB1057E07B33 SLP232 P0000 60000 T10501106 11044 21050 53025

時間: 07:14 (12:14 UTC)


TAF: 見つかりません

4,000以上の空港の気象観測と天気予報(METAR報とTAF報)

利用可能な観測所は地図上に黄色い丸と赤い丸で示す。

丸の上にカーソルを重ねると観測所名を参照できる。

次にクリックすると気象観測と天気予報を参照できる。

マップの切り替え:黒色「×」印の緑ボタンをクリックして拡大、「-」印の緑ボタンをクリックして縮小、緑色の三角印をクリックして隣りの地図に切り替え


METAR-TAF: